createdAt,value
2023-03-24T00:01:58.931Z,68.33
2023-03-24T00:04:30.169Z,68.15
2023-03-24T00:07:02.254Z,68.44
2023-03-24T00:09:33.072Z,68.28
2023-03-24T00:12:05.112Z,68.16
2023-03-24T00:14:35.771Z,68.27
2023-03-24T00:17:10.693Z,68.00
2023-03-24T00:19:45.698Z,68.16
2023-03-24T00:22:16.422Z,68.11
2023-03-24T00:24:47.521Z,68.22
2023-03-24T00:27:19.241Z,68.17
2023-03-24T00:29:49.844Z,68.27
2023-03-24T00:32:20.629Z,68.14
2023-03-24T00:34:54.743Z,67.93
2023-03-24T00:37:25.407Z,68.10
2023-03-24T00:39:56.078Z,68.06
2023-03-24T00:42:26.765Z,68.09
2023-03-24T00:44:57.500Z,68.18
2023-03-24T00:47:29.507Z,68.22
2023-03-24T00:50:02.685Z,68.08
2023-03-24T00:52:34.779Z,68.06
2023-03-24T00:55:09.437Z,67.99
2023-03-24T00:57:41.261Z,68.15
2023-03-24T01:00:17.383Z,68.25
2023-03-24T01:02:54.174Z,68.12
2023-03-24T01:05:28.482Z,68.04
2023-03-24T01:08:05.445Z,68.03
2023-03-24T01:10:43.247Z,68.06
2023-03-24T01:13:16.064Z,68.22
2023-03-24T01:15:47.101Z,67.98
2023-03-24T01:18:18.923Z,68.10
2023-03-24T01:20:50.872Z,68.13
2023-03-24T01:23:26.300Z,68.19
2023-03-24T01:25:59.699Z,68.25
2023-03-24T01:28:30.599Z,68.20
2023-03-24T01:31:01.276Z,68.26
2023-03-24T01:33:32.190Z,68.33
2023-03-24T01:36:02.886Z,68.31
2023-03-24T01:38:33.491Z,68.34
2023-03-24T01:41:06.158Z,68.24
2023-03-24T01:43:38.259Z,68.11
2023-03-24T01:46:24.816Z,68.25
2023-03-24T01:49:10.483Z,68.21
2023-03-24T01:51:44.771Z,68.31
2023-03-24T01:54:33.766Z,68.04
2023-03-24T01:57:11.864Z,68.07
2023-03-24T01:59:49.211Z,68.11
2023-03-24T02:02:43.240Z,68.18
2023-03-24T02:05:16.208Z,68.19
2023-03-24T02:08:03.466Z,68.21
2023-03-24T02:10:37.332Z,68.14
2023-03-24T02:13:13.920Z,68.12
2023-03-24T02:16:05.413Z,68.16
2023-03-24T02:27:48.793Z,68.24
2023-03-24T02:31:17.061Z,68.13
2023-03-24T02:34:05.054Z,68.19
2023-03-24T02:37:30.205Z,68.46
2023-03-24T02:41:07.681Z,68.12
2023-03-24T02:45:14.918Z,68.30
2023-03-24T02:48:21.395Z,68.22
2023-03-24T02:55:33.846Z,68.44
2023-03-24T02:58:47.904Z,68.49
2023-03-24T03:01:58.885Z,68.39
2023-03-24T03:05:24.401Z,68.40
2023-03-24T03:08:18.564Z,68.31
2023-03-24T03:11:05.463Z,68.57
2023-03-24T03:14:12.081Z,68.39
2023-03-24T03:17:01.960Z,68.48
2023-03-24T03:19:52.380Z,68.66
2023-03-24T03:22:44.366Z,68.83
2023-03-24T03:26:15.682Z,68.76
2023-03-24T03:29:53.167Z,68.89
2023-03-24T03:32:34.505Z,68.89
2023-03-24T03:35:30.031Z,68.81
2023-03-24T03:38:36.719Z,68.71
2023-03-24T03:45:59.652Z,69.02
2023-03-24T03:49:26.807Z,69.06
2023-03-24T03:52:20.849Z,69.08
2023-03-24T03:55:25.813Z,69.32
2023-03-24T03:58:31.796Z,69.23
2023-03-24T04:01:31.858Z,69.01
2023-03-24T04:05:06.619Z,69.17
2023-03-24T04:08:08.118Z,69.10
2023-03-24T04:15:10.909Z,69.30
2023-03-24T04:18:28.228Z,69.34
2023-03-24T04:21:33.688Z,69.48
2023-03-24T04:24:57.836Z,69.28
2023-03-24T04:31:58.347Z,69.38
2023-03-24T04:34:54.936Z,69.16
2023-03-24T04:37:39.184Z,69.30
2023-03-24T04:41:14.715Z,69.44
2023-03-24T04:44:22.595Z,69.38
2023-03-24T04:47:55.713Z,69.47
2023-03-24T04:51:24.037Z,69.43
2023-03-24T04:59:28.889Z,69.80
2023-03-24T05:03:21.014Z,69.62
2023-03-24T05:06:19.540Z,69.82
2023-03-24T05:09:16.433Z,69.81
2023-03-24T05:11:50.223Z,69.61
2023-03-24T05:17:45.044Z,69.67
2023-03-24T05:21:16.055Z,69.83
2023-03-24T05:28:54.370Z,70.02
2023-03-24T05:31:27.101Z,69.96
2023-03-24T05:34:27.700Z,70.05
2023-03-24T05:38:47.475Z,70.09
2023-03-24T05:42:36.503Z,70.09
2023-03-24T05:46:18.665Z,70.21
2023-03-24T05:49:30.791Z,70.26
2023-03-24T06:01:55.390Z,70.27
2023-03-24T06:04:59.714Z,70.31
2023-03-24T06:08:01.879Z,70.58
2023-03-24T06:10:39.038Z,70.39
2023-03-24T06:13:10.810Z,70.46
2023-03-24T06:23:17.301Z,70.43
2023-03-24T06:27:14.838Z,70.56
2023-03-24T06:30:30.962Z,70.74
2023-03-24T06:33:42.995Z,70.57
2023-03-24T06:37:16.048Z,70.64
2023-03-24T06:40:24.933Z,70.46
2023-03-24T06:43:50.839Z,70.49
2023-03-24T06:46:49.829Z,70.68
2023-03-24T06:54:29.806Z,70.76
2023-03-24T06:58:44.372Z,70.85
2023-03-24T07:01:39.793Z,70.92
2023-03-24T07:04:56.403Z,70.84
2023-03-24T07:11:02.511Z,70.99
2023-03-24T07:17:45.552Z,71.18
2023-03-24T07:20:40.446Z,71.03
2023-03-24T07:24:04.144Z,71.06
2023-03-24T07:28:00.561Z,71.00
2023-03-24T07:30:39.912Z,71.16
2023-03-24T07:33:12.950Z,71.03
2023-03-24T07:35:50.902Z,71.14
2023-03-24T07:38:37.678Z,71.10
2023-03-24T07:41:15.760Z,71.08
2023-03-24T07:43:52.877Z,71.05
2023-03-24T07:46:27.745Z,71.23
2023-03-24T07:49:05.724Z,71.14
2023-03-24T07:51:40.105Z,71.28
2023-03-24T07:54:30.248Z,71.24
2023-03-24T07:57:02.732Z,71.27
2023-03-24T07:59:36.578Z,71.08
2023-03-24T08:02:23.101Z,71.08
2023-03-24T08:05:03.329Z,70.99
2023-03-24T08:07:57.944Z,70.98
2023-03-24T08:11:01.709Z,70.73
2023-03-24T08:13:35.095Z,70.90
2023-03-24T08:16:05.940Z,71.01
2023-03-24T08:18:43.491Z,71.08
2023-03-24T08:21:14.076Z,70.98
2023-03-24T08:23:44.702Z,70.84
2023-03-24T08:26:18.396Z,70.93
2023-03-24T08:28:50.002Z,70.82
2023-03-24T08:31:22.735Z,70.82
2023-03-24T08:33:55.843Z,70.84
2023-03-24T08:36:27.202Z,70.95
2023-03-24T08:38:58.522Z,70.88
2023-03-24T08:41:35.459Z,70.82
2023-03-24T08:44:09.010Z,70.91
2023-03-24T08:46:39.763Z,70.68
2023-03-24T08:49:10.504Z,70.64
2023-03-24T08:51:41.567Z,70.59
2023-03-24T08:54:13.139Z,70.53
2023-03-24T08:56:43.873Z,70.46
2023-03-24T08:59:15.907Z,70.50
2023-03-24T09:01:46.533Z,70.67
2023-03-24T09:04:17.218Z,70.86
2023-03-24T09:06:47.938Z,70.89
2023-03-24T09:09:18.552Z,71.08
2023-03-24T09:11:49.471Z,71.07
2023-03-24T09:14:20.055Z,71.05
2023-03-24T09:16:51.736Z,71.11
2023-03-24T09:19:22.329Z,71.17
2023-03-24T09:21:53.079Z,71.32
2023-03-24T09:24:23.600Z,71.29
2023-03-24T09:26:56.332Z,71.29
2023-03-24T09:29:28.025Z,71.48
2023-03-24T09:31:59.437Z,71.44
2023-03-24T09:34:31.112Z,71.42
2023-03-24T09:37:04.669Z,71.30
2023-03-24T09:39:38.004Z,71.39
2023-03-24T09:42:09.747Z,71.44
2023-03-24T09:44:45.838Z,71.35
2023-03-24T09:47:28.517Z,71.40
2023-03-24T09:50:41.286Z,71.32
2023-03-24T09:53:35.105Z,71.33
2023-03-24T09:56:14.821Z,71.37
2023-03-24T09:58:49.707Z,71.42
2023-03-24T10:01:54.743Z,71.46
2023-03-24T10:04:28.733Z,71.66
2023-03-24T10:07:31.398Z,71.53
2023-03-24T10:10:04.060Z,71.39
2023-03-24T10:12:40.958Z,71.58
2023-03-24T10:15:30.862Z,71.49
2023-03-24T10:18:15.232Z,71.44
2023-03-24T10:20:58.422Z,71.39
2023-03-24T10:23:44.520Z,71.32
2023-03-24T10:26:18.534Z,71.48
2023-03-24T10:28:53.417Z,71.31
2023-03-24T10:31:31.728Z,71.01
2023-03-24T10:34:02.695Z,71.16
2023-03-24T10:36:36.437Z,71.00
2023-03-24T10:41:48.836Z,70.52
2023-03-24T10:44:20.516Z,70.78
2023-03-24T10:46:57.970Z,70.79
2023-03-24T10:49:55.316Z,70.74
2023-03-24T10:53:23.743Z,70.61
2023-03-24T10:57:00.895Z,70.60
2023-03-24T11:00:34.978Z,70.36
2023-03-24T11:04:06.567Z,70.47
2023-03-24T11:07:21.567Z,70.23
2023-03-24T11:10:03.974Z,70.12
2023-03-24T11:12:39.269Z,70.11
2023-03-24T11:15:24.500Z,70.20
2023-03-24T11:17:58.344Z,70.06
2023-03-24T11:20:35.996Z,70.23
2023-03-24T11:23:22.133Z,70.14
2023-03-24T11:26:08.138Z,70.14
2023-03-24T11:28:43.301Z,69.98
2023-03-24T11:31:24.995Z,70.04
2023-03-24T11:34:35.581Z,70.03
2023-03-24T11:37:23.481Z,70.20
2023-03-24T11:40:17.255Z,70.06
2023-03-24T11:43:01.885Z,69.83
2023-03-24T11:45:42.767Z,69.73
2023-03-24T11:48:26.995Z,69.46
2023-03-24T11:51:00.969Z,69.42
2023-03-24T11:53:47.402Z,69.28
2023-03-24T11:56:33.306Z,69.27
2023-03-24T11:59:36.749Z,69.09
2023-03-24T12:02:49.092Z,68.88
2023-03-24T12:05:39.724Z,68.92
2023-03-24T12:15:27.296Z,68.67
2023-03-24T12:18:02.234Z,68.47
2023-03-24T12:20:39.367Z,68.57
2023-03-24T12:23:36.476Z,68.59
2023-03-24T12:26:26.720Z,68.54
2023-03-24T12:29:35.845Z,68.48
2023-03-24T12:32:43.673Z,68.47
2023-03-24T12:35:49.325Z,68.49
2023-03-24T12:38:32.831Z,68.36
2023-03-24T12:41:26.702Z,68.27
2023-03-24T12:44:09.694Z,68.14
2023-03-24T12:46:48.386Z,68.11
2023-03-24T12:50:19.359Z,68.12
2023-03-24T12:53:27.093Z,67.98
2023-03-24T12:56:11.202Z,67.84
2023-03-24T12:59:20.961Z,67.83
2023-03-24T13:01:55.366Z,67.78
2023-03-24T13:09:26.828Z,67.63
2023-03-24T13:12:22.695Z,67.53
2023-03-24T13:15:53.148Z,67.41
2023-03-24T13:19:01.008Z,67.23
2023-03-24T13:21:35.771Z,67.24
2023-03-24T13:24:15.441Z,67.23
2023-03-24T13:27:09.187Z,67.16
2023-03-24T13:30:08.803Z,67.08
2023-03-24T13:32:52.894Z,67.06
2023-03-24T13:36:06.470Z,67.03
2023-03-24T13:40:00.357Z,66.93
2023-03-24T13:44:15.765Z,66.95
2023-03-24T13:47:57.703Z,66.92
2023-03-24T13:54:41.211Z,66.87
2023-03-24T13:57:52.349Z,66.73
2023-03-24T14:00:51.412Z,66.65
2023-03-24T14:04:28.751Z,66.75
2023-03-24T14:07:21.708Z,66.60
2023-03-24T14:10:21.647Z,66.66
2023-03-24T14:13:02.160Z,66.60
2023-03-24T14:15:55.383Z,66.72
2023-03-24T14:19:21.329Z,66.73
2023-03-24T14:22:32.197Z,66.65
2023-03-24T14:25:09.318Z,66.68
2023-03-24T14:28:07.603Z,66.72
2023-03-24T14:30:53.024Z,66.65
2023-03-24T14:35:21.276Z,66.65
2023-03-24T14:38:37.288Z,66.58
2023-03-24T14:41:44.810Z,66.66
2023-03-24T14:44:15.975Z,66.58
2023-03-24T14:46:52.278Z,66.70
2023-03-24T14:49:25.224Z,66.65
2023-03-24T14:52:19.878Z,66.66
2023-03-24T14:54:59.454Z,66.77
2023-03-24T14:59:03.600Z,66.63
2023-03-24T15:01:37.214Z,66.50
2023-03-24T15:04:11.677Z,66.60
2023-03-24T15:07:11.224Z,66.42
2023-03-24T15:10:02.131Z,66.32
2023-03-24T15:12:36.761Z,66.39
2023-03-24T15:15:23.312Z,66.31
2023-03-24T15:18:24.021Z,66.35
2023-03-24T15:20:58.963Z,66.34
2023-03-24T15:24:02.690Z,66.28
2023-03-24T15:26:34.710Z,66.29
2023-03-24T15:29:09.643Z,66.19
2023-03-24T15:31:42.479Z,66.18
2023-03-24T15:34:36.744Z,66.15
2023-03-24T15:37:56.953Z,66.19
2023-03-24T15:40:39.401Z,66.22
2023-03-24T15:44:07.814Z,66.25
2023-03-24T15:47:28.070Z,66.36
2023-03-24T15:50:53.145Z,66.31
2023-03-24T15:53:59.586Z,66.30
2023-03-24T15:57:09.228Z,66.38
2023-03-24T15:59:45.154Z,66.28
2023-03-24T16:03:19.416Z,66.20
2023-03-24T16:06:59.298Z,66.12
2023-03-24T16:10:08.048Z,66.17
2023-03-24T16:13:31.318Z,66.18
2023-03-24T16:16:48.385Z,66.06
2023-03-24T16:20:13.248Z,66.09
2023-03-24T16:23:50.448Z,66.07
2023-03-24T16:26:43.902Z,66.07
2023-03-24T16:29:25.998Z,65.98
2023-03-24T16:31:59.328Z,65.98
2023-03-24T16:34:32.339Z,66.12
2023-03-24T16:37:03.112Z,66.18
2023-03-24T16:39:33.689Z,66.23
2023-03-24T16:42:04.509Z,66.22
2023-03-24T16:44:35.357Z,66.07
2023-03-24T16:47:11.200Z,66.12
2023-03-24T16:50:03.344Z,66.15
2023-03-24T16:52:51.370Z,66.19
2023-03-24T16:56:04.512Z,66.23
2023-03-24T16:59:15.355Z,66.24
2023-03-24T17:02:07.058Z,66.32
2023-03-24T17:04:41.782Z,66.19
2023-03-24T17:07:33.082Z,66.30
2023-03-24T17:10:40.510Z,66.44
2023-03-24T17:13:46.395Z,66.54
2023-03-24T17:16:50.285Z,66.74
2023-03-24T17:19:58.363Z,66.79
2023-03-24T17:22:46.286Z,66.72
2023-03-24T17:26:11.356Z,66.85
2023-03-24T17:30:07.789Z,66.81
2023-03-24T17:34:08.639Z,66.81
2023-03-24T17:37:32.220Z,66.80
2023-03-24T17:40:49.099Z,66.91
2023-03-24T17:43:39.313Z,67.00
2023-03-24T17:46:28.491Z,67.04
2023-03-24T17:50:03.270Z,67.15
2023-03-24T17:53:23.822Z,67.00
2023-03-24T17:56:53.633Z,67.04
2023-03-24T18:00:27.622Z,67.03
2023-03-24T18:03:53.056Z,67.05
2023-03-24T18:07:26.280Z,66.99
2023-03-24T18:10:57.098Z,66.93
2023-03-24T18:14:27.328Z,67.14
2023-03-24T18:17:38.152Z,67.23
2023-03-24T18:20:49.321Z,67.38
2023-03-24T18:23:35.238Z,67.25
2023-03-24T18:26:42.601Z,67.20
2023-03-24T18:29:43.598Z,67.22
2023-03-24T18:32:22.582Z,67.24
2023-03-24T18:34:55.970Z,67.12
2023-03-24T18:37:29.820Z,67.12
2023-03-24T18:40:03.203Z,67.21
2023-03-24T18:42:37.428Z,67.19
2023-03-24T18:45:12.341Z,67.33
2023-03-24T18:47:50.023Z,67.18
2023-03-24T18:50:29.340Z,67.05
2023-03-24T18:53:04.728Z,67.01
2023-03-24T18:55:40.320Z,67.01
2023-03-24T18:58:22.188Z,66.66
2023-03-24T19:01:03.532Z,66.29
2023-03-24T19:03:39.638Z,66.11
2023-03-24T19:06:16.489Z,66.09
2023-03-24T19:08:53.984Z,66.08
2023-03-24T19:11:27.396Z,66.27
2023-03-24T19:14:00.967Z,66.30
2023-03-24T19:16:36.573Z,66.46
2023-03-24T19:19:10.969Z,66.28
2023-03-24T19:21:44.424Z,66.36
2023-03-24T19:24:23.256Z,66.24
2023-03-24T19:27:09.607Z,66.39
2023-03-24T19:29:42.554Z,66.59
2023-03-24T19:32:15.289Z,66.45
2023-03-24T19:34:49.575Z,66.42
2023-03-24T19:37:24.122Z,66.34
2023-03-24T19:40:07.897Z,66.11
2023-03-24T19:42:42.458Z,66.11
2023-03-24T19:45:19.957Z,66.15
2023-03-24T19:47:52.715Z,66.25
2023-03-24T19:50:24.832Z,66.27
2023-03-24T19:52:58.373Z,66.25
2023-03-24T19:55:31.526Z,66.26
2023-03-24T19:58:06.027Z,66.41
2023-03-24T20:00:41.709Z,66.39
2023-03-24T20:03:13.477Z,66.40
2023-03-24T20:05:50.865Z,66.42
2023-03-24T20:08:32.290Z,66.38
2023-03-24T20:11:31.593Z,66.45
2023-03-24T20:14:06.939Z,66.36
2023-03-24T20:16:41.227Z,66.54
2023-03-24T20:19:15.647Z,66.53
2023-03-24T20:21:53.598Z,66.52
2023-03-24T20:24:27.825Z,66.61
2023-03-24T20:27:05.916Z,66.70
2023-03-24T20:29:39.868Z,66.47
2023-03-24T20:32:15.818Z,66.54
2023-03-24T20:35:12.470Z,66.39
2023-03-24T20:38:14.515Z,66.58
2023-03-24T20:41:11.090Z,66.70
2023-03-24T20:44:19.579Z,67.04
2023-03-24T20:47:46.932Z,67.17
2023-03-24T20:51:32.111Z,67.22
2023-03-24T20:54:47.954Z,67.11
2023-03-24T21:01:38.752Z,66.90
2023-03-24T21:04:50.722Z,66.91
2023-03-24T21:08:02.950Z,66.75
2023-03-24T21:11:00.120Z,66.84
2023-03-24T21:14:09.859Z,66.72
2023-03-24T21:21:08.586Z,66.97
2023-03-24T21:24:35.961Z,66.84
2023-03-24T21:27:35.992Z,67.01
2023-03-24T21:30:58.976Z,66.85
2023-03-24T21:34:25.257Z,66.88
2023-03-24T21:37:58.508Z,66.88
2023-03-24T21:41:10.354Z,66.81
2023-03-24T21:44:23.522Z,66.90
2023-03-24T21:47:45.711Z,66.83
2023-03-24T21:51:18.375Z,66.69
2023-03-24T21:54:36.292Z,66.63
2023-03-24T21:58:04.401Z,66.91
2023-03-24T22:01:19.465Z,66.81
2023-03-24T22:04:25.520Z,66.89
2023-03-24T22:07:23.367Z,66.94
2023-03-24T22:10:43.285Z,66.87
2023-03-24T22:14:07.417Z,66.88
2023-03-24T22:21:15.332Z,66.86
2023-03-24T22:24:38.543Z,66.69
2023-03-24T22:27:40.276Z,66.84
2023-03-24T22:30:37.343Z,66.64
2023-03-24T22:33:36.414Z,66.71
2023-03-24T22:36:42.345Z,66.78
2023-03-24T22:39:48.390Z,66.75
2023-03-24T22:43:03.475Z,66.74
2023-03-24T22:46:07.652Z,66.87
2023-03-24T22:49:20.365Z,66.86
2023-03-24T22:52:49.536Z,66.79
2023-03-24T22:55:58.294Z,66.75
2023-03-24T22:59:12.344Z,66.70
2023-03-24T23:02:15.432Z,66.83
2023-03-24T23:05:22.343Z,66.69
2023-03-24T23:08:29.270Z,66.68
2023-03-24T23:11:29.317Z,66.82
2023-03-24T23:14:34.395Z,66.79
2023-03-24T23:17:25.486Z,66.57
2023-03-24T23:20:26.302Z,66.71
2023-03-24T23:23:30.943Z,66.60
2023-03-24T23:26:48.380Z,66.54
2023-03-24T23:29:46.240Z,66.57
2023-03-24T23:32:52.355Z,66.58
2023-03-24T23:35:53.287Z,66.78
2023-03-24T23:39:12.404Z,66.64
2023-03-24T23:42:27.402Z,66.57
2023-03-24T23:45:47.320Z,66.62
2023-03-24T23:49:01.220Z,66.72
2023-03-24T23:52:10.301Z,66.74
2023-03-24T23:55:27.256Z,66.70
2023-03-24T23:58:40.282Z,66.87
